createdAt,value
2023-04-26T00:00:01.229Z,2.08
2023-04-26T00:00:13.007Z,1.85
2023-04-26T00:00:24.709Z,1.75
2023-04-26T00:00:36.128Z,1.88
2023-04-26T00:00:47.586Z,1.77
2023-04-26T00:01:03.210Z,1.52
2023-04-26T00:01:14.678Z,1.60
2023-04-26T00:01:26.137Z,1.80
2023-04-26T00:01:37.576Z,1.80
2023-04-26T00:01:49.065Z,1.80
2023-04-26T00:02:00.545Z,1.92
2023-04-26T00:02:12.457Z,1.90
2023-04-26T00:02:24.110Z,2.03
2023-04-26T00:02:37.285Z,1.95
2023-04-26T00:02:49.298Z,2.50
2023-04-26T00:03:01.071Z,2.58
2023-04-26T00:03:12.777Z,2.35
2023-04-26T00:03:24.417Z,2.15
2023-04-26T00:03:36.040Z,2.13
2023-04-26T00:03:48.853Z,2.00
2023-04-26T00:04:00.922Z,1.80
2023-04-26T00:04:13.466Z,1.98
2023-04-26T00:04:26.794Z,2.00
2023-04-26T00:04:41.809Z,1.95
2023-04-26T00:04:56.924Z,1.73
2023-04-26T00:05:10.321Z,1.90
2023-04-26T00:05:24.955Z,1.98
2023-04-26T00:05:36.530Z,1.85
2023-04-26T00:05:48.064Z,1.75
2023-04-26T00:06:00.969Z,1.73
2023-04-26T00:06:12.726Z,1.80
2023-04-26T00:06:24.421Z,2.00
2023-04-26T00:06:37.151Z,1.90
2023-04-26T00:06:48.710Z,1.80
2023-04-26T00:07:01.566Z,1.85
2023-04-26T00:07:17.114Z,1.90
2023-04-26T00:07:28.624Z,1.98
2023-04-26T00:07:43.170Z,1.95
2023-04-26T00:07:57.296Z,1.85
2023-04-26T00:08:08.805Z,2.20
2023-04-26T00:08:20.152Z,2.30
2023-04-26T00:08:32.818Z,2.00
2023-04-26T00:08:45.458Z,1.95
2023-04-26T00:08:56.819Z,1.90
2023-04-26T00:09:11.564Z,2.20
2023-04-26T00:09:23.223Z,1.90
2023-04-26T00:09:34.825Z,1.60
2023-04-26T00:09:46.255Z,1.70
2023-04-26T00:09:59.863Z,1.90
2023-04-26T00:10:11.771Z,1.73
2023-04-26T00:10:23.165Z,1.90
2023-04-26T00:10:34.802Z,1.95
2023-04-26T00:10:46.267Z,1.88
2023-04-26T00:10:57.843Z,1.75
2023-04-26T00:11:09.322Z,1.98
2023-04-26T00:11:20.881Z,1.98
2023-04-26T00:11:32.315Z,1.95
2023-04-26T00:11:43.768Z,1.95
2023-04-26T00:11:56.307Z,2.20
2023-04-26T00:12:13.299Z,2.20
2023-04-26T00:12:28.428Z,2.15
2023-04-26T00:12:39.880Z,2.20
2023-04-26T00:12:51.224Z,1.98
2023-04-26T00:13:03.860Z,1.77
2023-04-26T00:13:15.229Z,1.75
2023-04-26T00:13:26.813Z,1.65
2023-04-26T00:13:38.188Z,1.60
2023-04-26T00:13:49.606Z,1.55
2023-04-26T00:14:00.993Z,1.60
2023-04-26T00:14:12.574Z,1.58
2023-04-26T00:14:24.170Z,1.58
2023-04-26T00:14:35.613Z,1.63
2023-04-26T00:14:47.156Z,1.70
2023-04-26T00:14:58.550Z,1.77
2023-04-26T00:15:10.146Z,1.73
2023-04-26T00:15:21.688Z,1.75
2023-04-26T00:15:34.332Z,1.70
2023-04-26T00:15:45.762Z,1.70
2023-04-26T00:15:57.319Z,1.70
2023-04-26T00:16:08.785Z,1.75
2023-04-26T00:16:20.413Z,1.67
2023-04-26T00:16:33.293Z,1.90
2023-04-26T00:16:45.196Z,1.90
2023-04-26T00:16:57.133Z,1.90
2023-04-26T00:17:10.219Z,1.77
2023-04-26T00:17:23.598Z,1.75
2023-04-26T00:17:35.632Z,1.83
2023-04-26T00:17:47.313Z,1.85
2023-04-26T00:17:58.853Z,1.65
2023-04-26T00:18:11.306Z,1.70
2023-04-26T00:18:22.802Z,1.65
2023-04-26T00:18:34.532Z,1.63
2023-04-26T00:18:45.899Z,1.70
2023-04-26T00:18:57.393Z,1.80
2023-04-26T00:19:08.840Z,1.80
2023-04-26T00:19:20.260Z,1.77
2023-04-26T00:19:31.684Z,2.05
2023-04-26T00:19:43.077Z,1.90
2023-04-26T00:19:54.546Z,1.85
2023-04-26T00:20:06.650Z,1.40
2023-04-26T00:20:18.201Z,1.48
2023-04-26T00:20:30.050Z,1.40
2023-04-26T00:20:41.474Z,1.30
2023-04-26T00:20:52.912Z,1.50
2023-04-26T00:21:04.378Z,1.63
2023-04-26T00:21:16.936Z,1.70
2023-04-26T00:21:28.346Z,1.70
2023-04-26T00:21:40.120Z,1.75
2023-04-26T00:21:51.652Z,1.70
2023-04-26T00:22:03.148Z,1.45
2023-04-26T00:22:15.985Z,1.40
2023-04-26T00:22:27.322Z,1.50
2023-04-26T00:22:39.087Z,1.60
2023-04-26T00:22:50.893Z,1.42
2023-04-26T00:23:02.373Z,1.52
2023-04-26T00:23:13.787Z,1.70
2023-04-26T00:23:25.246Z,1.75
2023-04-26T00:23:36.705Z,1.65
2023-04-26T00:23:48.179Z,1.50
2023-04-26T00:23:59.560Z,1.33
2023-04-26T00:24:11.044Z,1.27
2023-04-26T00:24:22.459Z,1.38
2023-04-26T00:24:35.468Z,1.55
2023-04-26T00:24:46.860Z,1.45
2023-04-26T00:24:58.233Z,1.23
2023-04-26T00:25:09.985Z,1.10
2023-04-26T00:25:21.408Z,1.00
2023-04-26T00:25:32.822Z,1.00
2023-04-26T00:25:44.211Z,1.08
2023-04-26T00:25:58.137Z,0.90
2023-04-26T00:26:09.503Z,1.00
2023-04-26T00:26:20.882Z,1.20
2023-04-26T00:26:33.685Z,1.50
2023-04-26T00:26:45.240Z,1.42
2023-04-26T00:26:56.709Z,1.30
2023-04-26T00:27:08.112Z,1.10
2023-04-26T00:27:19.705Z,1.15
2023-04-26T00:27:31.158Z,1.10
2023-04-26T00:27:42.567Z,1.15
2023-04-26T00:27:54.019Z,1.10
2023-04-26T00:28:05.534Z,1.02
2023-04-26T00:28:18.424Z,1.20
2023-04-26T00:28:30.507Z,1.33
2023-04-26T00:28:41.872Z,1.20
2023-04-26T00:28:53.657Z,1.20
2023-04-26T00:29:05.375Z,1.20
2023-04-26T00:29:16.780Z,1.33
2023-04-26T00:29:31.358Z,1.10
2023-04-26T00:29:50.379Z,1.02
2023-04-26T00:30:01.855Z,0.95
2023-04-26T00:30:18.313Z,1.00
2023-04-26T00:30:29.799Z,0.90
2023-04-26T00:30:43.912Z,0.98
2023-04-26T00:30:55.465Z,1.02
2023-04-26T00:31:08.086Z,1.08
2023-04-26T00:31:19.637Z,0.82
2023-04-26T00:31:31.294Z,0.90
2023-04-26T00:31:42.733Z,1.00
2023-04-26T00:31:54.298Z,1.10
2023-04-26T00:32:06.081Z,0.80
2023-04-26T00:32:18.429Z,0.75
2023-04-26T00:32:31.166Z,0.80
2023-04-26T00:32:43.120Z,0.95
2023-04-26T00:32:54.567Z,0.90
2023-04-26T00:33:06.044Z,0.90
2023-04-26T00:33:17.543Z,0.75
2023-04-26T00:33:30.127Z,0.88
2023-04-26T00:33:42.020Z,0.90
2023-04-26T00:33:53.458Z,0.80
2023-04-26T00:34:05.039Z,0.90
2023-04-26T00:34:16.424Z,0.98
2023-04-26T00:34:37.458Z,1.08
2023-04-26T00:34:48.932Z,0.90
2023-04-26T00:35:00.253Z,0.95
2023-04-26T00:35:11.605Z,1.10
2023-04-26T00:35:25.377Z,1.10
2023-04-26T00:35:37.580Z,1.13
2023-04-26T00:35:49.006Z,1.00
2023-04-26T00:36:00.633Z,0.95
2023-04-26T00:36:13.161Z,0.93
2023-04-26T00:36:24.530Z,1.00
2023-04-26T00:36:35.964Z,1.10
2023-04-26T00:36:47.368Z,1.10
2023-04-26T00:36:58.771Z,1.00
2023-04-26T00:37:10.508Z,1.00
2023-04-26T00:37:23.191Z,1.15
2023-04-26T00:37:34.615Z,1.10
2023-04-26T00:37:47.097Z,1.00
2023-04-26T00:37:58.529Z,0.88
2023-04-26T00:38:11.248Z,0.85
2023-04-26T00:38:22.598Z,0.90
2023-04-26T00:38:35.201Z,0.90
2023-04-26T00:38:46.793Z,1.00
2023-04-26T00:38:58.217Z,0.90
2023-04-26T00:39:09.686Z,0.90
2023-04-26T00:39:21.105Z,1.08
2023-04-26T00:39:32.553Z,1.10
2023-04-26T00:39:43.923Z,0.98
2023-04-26T00:39:55.300Z,0.88
2023-04-26T00:40:07.315Z,0.90
2023-04-26T00:40:23.236Z,1.00
2023-04-26T00:40:34.655Z,1.27
2023-04-26T00:40:46.049Z,1.20
2023-04-26T00:40:57.456Z,1.25
2023-04-26T00:41:08.920Z,1.10
2023-04-26T00:41:20.396Z,1.05
2023-04-26T00:41:31.797Z,0.90
2023-04-26T00:41:43.402Z,0.93
2023-04-26T00:41:55.217Z,0.90
2023-04-26T00:42:06.610Z,0.85
2023-04-26T00:42:18.077Z,0.88
2023-04-26T00:42:29.521Z,0.98
2023-04-26T00:42:40.961Z,1.00
2023-04-26T00:42:57.732Z,1.10
2023-04-26T00:43:09.331Z,1.20
2023-04-26T00:43:20.859Z,1.33
2023-04-26T00:43:32.230Z,1.08
2023-04-26T00:43:43.782Z,0.90
2023-04-26T00:43:55.195Z,0.80
2023-04-26T00:44:06.619Z,1.05
2023-04-26T00:44:20.996Z,1.10
2023-04-26T00:44:33.290Z,1.13
2023-04-26T00:44:44.692Z,1.10
2023-04-26T00:44:56.081Z,1.10
2023-04-26T00:45:08.055Z,0.90
2023-04-26T00:45:19.499Z,0.73
2023-04-26T00:45:31.031Z,0.80
2023-04-26T00:45:42.625Z,0.82
2023-04-26T00:45:54.408Z,0.98
2023-04-26T00:46:08.699Z,1.00
2023-04-26T00:46:20.825Z,1.00
2023-04-26T00:46:32.397Z,0.95
2023-04-26T00:46:44.405Z,0.95
2023-04-26T00:46:55.933Z,0.93
2023-04-26T00:47:07.458Z,0.90
2023-04-26T00:47:18.979Z,0.85
2023-04-26T00:47:32.151Z,0.90
2023-04-26T00:47:43.670Z,0.90
2023-04-26T00:47:57.431Z,0.90
2023-04-26T00:48:09.001Z,0.93
2023-04-26T00:48:20.650Z,0.90
2023-04-26T00:48:33.135Z,0.98
2023-04-26T00:48:44.598Z,0.95
2023-04-26T00:48:56.309Z,0.77
2023-04-26T00:49:07.714Z,0.77
2023-04-26T00:49:22.392Z,0.80
2023-04-26T00:49:34.126Z,0.68
2023-04-26T00:49:45.570Z,0.55
2023-04-26T00:49:57.006Z,0.57
2023-04-26T00:50:08.646Z,0.73
2023-04-26T00:50:20.678Z,0.70
2023-04-26T00:50:32.802Z,0.77
2023-04-26T00:50:44.443Z,0.77
2023-04-26T00:50:55.976Z,0.75
2023-04-26T00:51:07.528Z,0.63
2023-04-26T00:51:18.999Z,0.75
2023-04-26T00:51:30.421Z,0.80
2023-04-26T00:51:43.521Z,0.70
2023-04-26T00:51:55.302Z,0.80
2023-04-26T00:52:07.116Z,0.80
2023-04-26T00:52:18.656Z,0.77
2023-04-26T00:52:31.727Z,0.80
2023-04-26T00:52:45.316Z,0.73
2023-04-26T00:52:59.621Z,0.80
2023-04-26T00:53:12.336Z,0.82
2023-04-26T00:53:23.860Z,0.70
2023-04-26T00:53:37.623Z,0.70
2023-04-26T00:53:51.912Z,1.00
2023-04-26T00:54:03.440Z,0.90
2023-04-26T00:54:15.465Z,0.80
2023-04-26T00:54:26.996Z,0.90
2023-04-26T00:54:38.602Z,0.90
2023-04-26T00:54:50.197Z,0.77
2023-04-26T00:55:02.332Z,0.70
2023-04-26T00:55:14.841Z,0.75
2023-04-26T00:55:28.124Z,0.80
2023-04-26T00:55:40.645Z,0.68
2023-04-26T00:55:52.072Z,0.45
2023-04-26T00:56:06.580Z,0.38
2023-04-26T00:56:18.982Z,0.50
2023-04-26T00:56:30.835Z,0.55
2023-04-26T00:56:42.857Z,0.50
2023-04-26T00:56:54.340Z,0.60
2023-04-26T00:57:06.879Z,0.70
2023-04-26T00:57:18.279Z,0.60
2023-04-26T00:57:29.807Z,0.60
2023-04-26T00:57:41.552Z,0.63
2023-04-26T00:57:53.449Z,0.70
2023-04-26T00:58:04.964Z,0.90
2023-04-26T00:58:16.437Z,0.70
2023-04-26T00:58:28.112Z,0.70
2023-04-26T00:58:39.568Z,0.70
2023-04-26T00:58:51.213Z,0.70
2023-04-26T00:59:03.524Z,0.60
2023-04-26T00:59:14.970Z,0.60
2023-04-26T00:59:27.422Z,0.60
2023-04-26T00:59:38.910Z,0.55
2023-04-26T00:59:50.346Z,0.52
2023-04-26T01:00:01.822Z,0.57
2023-04-26T01:00:14.585Z,0.60
2023-04-26T01:00:26.213Z,0.68
2023-04-26T01:00:37.651Z,0.70
2023-04-26T01:00:49.082Z,0.70
2023-04-26T01:01:02.040Z,0.60
2023-04-26T01:01:13.574Z,0.70
2023-04-26T01:01:25.102Z,0.73
2023-04-26T01:01:36.627Z,0.73
2023-04-26T01:01:48.418Z,0.63
2023-04-26T01:01:59.804Z,0.60
2023-04-26T01:02:11.337Z,0.60
2023-04-26T01:02:22.910Z,0.60
2023-04-26T01:02:34.784Z,0.60
2023-04-26T01:02:46.687Z,0.60
2023-04-26T01:02:58.450Z,0.50
2023-04-26T01:03:10.655Z,0.50
2023-04-26T01:03:22.284Z,0.65
2023-04-26T01:03:34.290Z,0.70
2023-04-26T01:03:46.012Z,0.63
2023-04-26T01:03:57.825Z,0.50
2023-04-26T01:04:11.566Z,0.50
2023-04-26T01:04:23.215Z,0.60
2023-04-26T01:04:35.230Z,0.70
2023-04-26T01:04:46.657Z,0.63
2023-04-26T01:04:58.123Z,0.57
2023-04-26T01:05:09.756Z,0.70
2023-04-26T01:05:21.363Z,0.90
2023-04-26T01:05:33.202Z,0.90
2023-04-26T01:05:45.333Z,0.80
2023-04-26T01:05:58.127Z,0.75
2023-04-26T01:06:11.045Z,0.70
2023-04-26T01:06:22.946Z,0.70
2023-04-26T01:06:35.489Z,0.60
2023-04-26T01:06:47.329Z,0.52
2023-04-26T01:07:01.217Z,0.60
2023-04-26T01:07:12.630Z,0.60
2023-04-26T01:07:24.423Z,0.70
2023-04-26T01:07:39.745Z,0.80
2023-04-26T01:07:52.043Z,0.82
2023-04-26T01:08:03.553Z,0.90
2023-04-26T01:08:14.977Z,0.70
2023-04-26T01:08:26.441Z,0.95
2023-04-26T01:08:37.885Z,0.80
2023-04-26T01:08:52.349Z,1.00
2023-04-26T01:09:05.020Z,0.80
2023-04-26T01:09:18.028Z,0.65
2023-04-26T01:09:32.719Z,0.70
2023-04-26T01:09:44.582Z,0.70
2023-04-26T01:09:57.858Z,0.70
2023-04-26T01:10:09.834Z,0.60
2023-04-26T01:10:21.216Z,0.70
2023-04-26T01:10:34.204Z,0.80
2023-04-26T01:10:46.542Z,0.98
2023-04-26T01:10:59.258Z,1.08
2023-04-26T01:11:11.037Z,1.00
2023-04-26T01:11:25.567Z,0.85
2023-04-26T01:11:37.757Z,0.63
2023-04-26T01:11:50.377Z,0.52
2023-04-26T01:12:03.887Z,0.50
2023-04-26T01:12:15.374Z,0.50
2023-04-26T01:12:27.034Z,0.52
2023-04-26T01:12:39.457Z,0.60
2023-04-26T01:12:51.123Z,0.70
2023-04-26T01:13:03.290Z,0.80
2023-04-26T01:13:15.984Z,0.70
2023-04-26T01:13:28.663Z,0.57
2023-04-26T01:13:42.285Z,0.50
2023-04-26T01:13:53.779Z,0.50
2023-04-26T01:14:06.364Z,0.50
2023-04-26T01:14:19.546Z,0.52
2023-04-26T01:14:31.805Z,0.50
2023-04-26T01:14:44.493Z,0.80
2023-04-26T01:14:57.014Z,0.70
2023-04-26T01:15:10.675Z,0.63
2023-04-26T01:15:22.296Z,0.63
2023-04-26T01:15:33.900Z,0.70
2023-04-26T01:15:46.483Z,0.70
2023-04-26T01:15:58.865Z,0.60
2023-04-26T01:16:10.287Z,0.65
2023-04-26T01:16:22.220Z,0.90
2023-04-26T01:16:34.122Z,0.98
2023-04-26T01:16:45.947Z,0.82
2023-04-26T01:16:57.916Z,0.80
2023-04-26T01:17:09.452Z,0.82
2023-04-26T01:17:20.877Z,1.00
2023-04-26T01:17:32.361Z,1.10
2023-04-26T01:17:46.832Z,1.13
2023-04-26T01:17:58.323Z,1.00
2023-04-26T01:18:09.746Z,0.90
2023-04-26T01:18:21.148Z,0.90
2023-04-26T01:18:32.526Z,0.70
2023-04-26T01:18:43.959Z,0.85
2023-04-26T01:18:55.359Z,0.93
2023-04-26T01:19:11.159Z,1.05
2023-04-26T01:19:22.769Z,0.95
2023-04-26T01:19:34.552Z,1.10
2023-04-26T01:19:49.830Z,1.23
2023-04-26T01:20:01.305Z,1.05
2023-04-26T01:20:14.474Z,0.90
2023-04-26T01:20:26.231Z,0.70
2023-04-26T01:20:37.717Z,0.80
2023-04-26T01:20:49.148Z,0.90
2023-04-26T01:21:02.068Z,1.00
2023-04-26T01:21:20.394Z,1.08
2023-04-26T01:21:34.570Z,0.98
2023-04-26T01:21:45.899Z,1.10
2023-04-26T01:21:57.267Z,1.10
2023-04-26T01:22:08.637Z,0.80
2023-04-26T01:22:19.992Z,0.70
2023-04-26T01:22:35.153Z,0.70
2023-04-26T01:22:46.516Z,0.70
2023-04-26T01:22:57.974Z,0.80
2023-04-26T01:23:10.278Z,1.00
2023-04-26T01:23:21.673Z,1.10
2023-04-26T01:23:33.086Z,0.88
2023-04-26T01:23:44.494Z,0.88
2023-04-26T01:23:55.972Z,0.90
2023-04-26T01:24:12.656Z,0.82
2023-04-26T01:24:26.684Z,0.90
2023-04-26T01:24:39.560Z,0.90
2023-04-26T01:24:54.881Z,0.80
2023-04-26T01:25:07.296Z,0.80
2023-04-26T01:25:18.893Z,0.85
2023-04-26T01:25:30.661Z,0.73
2023-04-26T01:25:44.858Z,0.80
2023-04-26T01:25:56.646Z,0.80
2023-04-26T01:26:08.150Z,0.90
2023-04-26T01:26:19.593Z,0.95
2023-04-26T01:26:31.007Z,1.13
2023-04-26T01:26:46.093Z,1.02
2023-04-26T01:26:57.797Z,0.88
2023-04-26T01:27:09.199Z,0.95
2023-04-26T01:27:20.655Z,1.15
2023-04-26T01:27:32.092Z,1.10
2023-04-26T01:27:43.479Z,0.82
2023-04-26T01:27:54.864Z,0.70
2023-04-26T01:28:09.474Z,0.73
2023-04-26T01:28:28.057Z,0.80
2023-04-26T01:28:40.873Z,1.20
2023-04-26T01:28:52.919Z,1.05
2023-04-26T01:29:13.701Z,0.90
2023-04-26T01:29:25.076Z,1.05
2023-04-26T01:29:36.524Z,0.93
2023-04-26T01:29:47.961Z,0.90
2023-04-26T01:29:59.406Z,0.80
2023-04-26T01:30:11.147Z,1.20
2023-04-26T01:30:22.542Z,1.20
2023-04-26T01:30:34.011Z,0.85
2023-04-26T01:30:48.069Z,0.90
2023-04-26T01:31:02.341Z,0.73
2023-04-26T01:31:14.258Z,0.70
2023-04-26T01:31:25.983Z,0.80
2023-04-26T01:31:37.486Z,0.80
2023-04-26T01:31:48.982Z,0.90
2023-04-26T01:32:00.409Z,0.90
2023-04-26T01:32:11.896Z,1.00
2023-04-26T01:32:23.396Z,0.88
2023-04-26T01:32:34.908Z,0.82
2023-04-26T01:32:46.396Z,0.82
2023-04-26T01:32:59.288Z,0.93
2023-04-26T01:33:10.680Z,1.00
2023-04-26T01:33:32.741Z,0.80
2023-04-26T01:33:44.146Z,0.95
2023-04-26T01:33:55.540Z,1.00
2023-04-26T01:34:06.914Z,1.00
2023-04-26T01:34:19.156Z,0.90
2023-04-26T01:34:30.560Z,0.77
2023-04-26T01:34:43.372Z,0.77
2023-04-26T01:34:56.410Z,0.85
2023-04-26T01:35:08.087Z,1.00
2023-04-26T01:35:19.539Z,1.00
2023-04-26T01:35:31.330Z,0.95
2023-04-26T01:35:42.892Z,1.20
2023-04-26T01:35:54.295Z,1.10
2023-04-26T01:36:11.735Z,1.07
2023-04-26T01:36:23.338Z,1.15
2023-04-26T01:36:34.770Z,1.20
2023-04-26T01:36:46.274Z,1.20
2023-04-26T01:36:57.649Z,0.98
2023-04-26T01:37:08.991Z,1.02
2023-04-26T01:37:20.478Z,1.23
2023-04-26T01:37:31.909Z,1.48
2023-04-26T01:37:43.816Z,1.42
2023-04-26T01:37:55.232Z,1.27
2023-04-26T01:38:07.900Z,1.20
2023-04-26T01:38:19.365Z,1.10
2023-04-26T01:38:31.883Z,1.13
2023-04-26T01:38:44.911Z,1.00
2023-04-26T01:38:56.275Z,1.00
2023-04-26T01:39:07.817Z,1.15
2023-04-26T01:39:19.357Z,1.27
2023-04-26T01:39:30.684Z,1.38
2023-04-26T01:39:42.415Z,1.13
2023-04-26T01:39:54.002Z,1.10
2023-04-26T01:40:07.796Z,1.23
2023-04-26T01:40:19.198Z,1.25
2023-04-26T01:40:30.600Z,1.17
2023-04-26T01:40:41.950Z,1.23
2023-04-26T01:40:55.707Z,1.30
2023-04-26T01:41:28.359Z,1.30
2023-04-26T01:41:40.211Z,1.15
2023-04-26T01:41:51.636Z,1.23
2023-04-26T01:42:04.040Z,1.30
2023-04-26T01:42:15.462Z,1.30
2023-04-26T01:42:26.936Z,1.20
2023-04-26T01:42:38.613Z,1.10
2023-04-26T01:42:50.071Z,1.08
2023-04-26T01:43:01.943Z,1.20
2023-04-26T01:43:18.161Z,1.25
2023-04-26T01:43:29.606Z,1.20
2023-04-26T01:43:41.021Z,1.20
2023-04-26T01:43:56.924Z,1.10
2023-04-26T01:44:08.892Z,1.20
2023-04-26T01:44:20.281Z,1.10
2023-04-26T01:44:32.884Z,1.20
2023-04-26T01:44:44.247Z,1.27
2023-04-26T01:44:55.625Z,1.13
2023-04-26T01:45:07.486Z,1.10
2023-04-26T01:45:18.908Z,0.98
2023-04-26T01:45:30.315Z,1.10
2023-04-26T01:45:41.720Z,1.13
2023-04-26T01:45:53.132Z,1.30
2023-04-26T01:46:06.505Z,1.27
2023-04-26T01:46:17.963Z,1.27
2023-04-26T01:46:29.432Z,1.10
2023-04-26T01:46:41.964Z,0.93
2023-04-26T01:46:53.518Z,1.08
2023-04-26T01:47:05.018Z,1.20
2023-04-26T01:47:18.907Z,1.30
2023-04-26T01:47:30.743Z,1.20
2023-04-26T01:47:42.160Z,1.20
2023-04-26T01:47:53.727Z,1.25
2023-04-26T01:48:05.687Z,1.48
2023-04-26T01:48:18.690Z,1.67
2023-04-26T01:48:30.176Z,1.33
2023-04-26T01:48:41.723Z,1.20
2023-04-26T01:48:53.350Z,1.17
2023-04-26T01:49:05.143Z,1.15
2023-04-26T01:49:18.064Z,1.27
2023-04-26T01:49:29.490Z,1.40
2023-04-26T01:49:41.029Z,1.48
2023-04-26T01:49:52.704Z,1.55
2023-04-26T01:50:05.942Z,1.27
2023-04-26T01:50:17.458Z,1.25
2023-04-26T01:50:28.885Z,1.23
2023-04-26T01:50:40.406Z,1.35
2023-04-26T01:50:51.843Z,1.60
2023-04-26T01:51:03.372Z,1.52
2023-04-26T01:51:15.779Z,1.70
2023-04-26T01:51:27.224Z,1.67
2023-04-26T01:51:38.845Z,1.60
2023-04-26T01:51:50.680Z,1.48
2023-04-26T01:52:02.268Z,1.40
2023-04-26T01:52:13.694Z,1.40
2023-04-26T01:52:25.180Z,1.25
2023-04-26T01:52:36.652Z,1.30
2023-04-26T01:52:48.020Z,1.33
2023-04-26T01:52:59.409Z,1.27
2023-04-26T01:53:10.841Z,1.20
2023-04-26T01:53:22.318Z,1.20
2023-04-26T01:53:34.952Z,1.33
2023-04-26T01:53:46.320Z,1.40
2023-04-26T01:53:57.682Z,1.20
2023-04-26T01:54:09.064Z,1.08
2023-04-26T01:54:20.593Z,1.05
2023-04-26T01:54:32.037Z,1.10
2023-04-26T01:54:43.729Z,1.10
2023-04-26T01:54:55.245Z,1.00
2023-04-26T01:55:07.470Z,0.90
2023-04-26T01:55:18.869Z,0.73
2023-04-26T01:55:30.352Z,1.00
2023-04-26T01:55:42.810Z,1.05
2023-04-26T01:55:54.192Z,1.02
2023-04-26T01:56:07.358Z,1.00
2023-04-26T01:56:24.157Z,1.00
2023-04-26T01:56:35.605Z,1.20
2023-04-26T01:56:47.021Z,1.20
2023-04-26T01:56:58.419Z,0.90
2023-04-26T01:57:11.013Z,0.90
2023-04-26T01:57:22.349Z,0.88
2023-04-26T01:57:33.785Z,1.02
2023-04-26T01:57:45.261Z,1.00
2023-04-26T01:57:56.863Z,0.90
2023-04-26T01:58:08.273Z,0.80
2023-04-26T01:58:20.005Z,0.80
2023-04-26T01:58:31.706Z,0.90
2023-04-26T01:58:43.104Z,1.10
2023-04-26T01:58:54.742Z,1.15
2023-04-26T01:59:07.268Z,1.05
2023-04-26T01:59:18.699Z,0.93
2023-04-26T01:59:30.253Z,0.95
2023-04-26T01:59:42.635Z,1.00
2023-04-26T01:59:54.022Z,0.80
2023-04-26T02:00:06.253Z,0.80
2023-04-26T02:00:18.147Z,0.75
2023-04-26T02:00:29.980Z,0.88
2023-04-26T02:00:41.591Z,0.90
2023-04-26T02:00:53.094Z,1.00
2023-04-26T02:01:07.623Z,0.88
2023-04-26T02:01:19.075Z,0.90
2023-04-26T02:01:34.626Z,0.85
2023-04-26T02:01:46.067Z,0.80
2023-04-26T02:01:58.603Z,0.85
2023-04-26T02:02:10.225Z,0.90
2023-04-26T02:02:21.807Z,0.90
2023-04-26T02:02:33.334Z,0.88
2023-04-26T02:02:44.959Z,0.90
2023-04-26T02:02:57.487Z,1.00
2023-04-26T02:03:10.410Z,1.20
2023-04-26T02:03:22.136Z,1.08
2023-04-26T02:03:34.013Z,0.90
2023-04-26T02:03:45.504Z,0.80
2023-04-26T02:03:56.978Z,0.88
2023-04-26T02:04:08.419Z,0.98
2023-04-26T02:04:19.858Z,1.05
2023-04-26T02:04:31.244Z,0.88
2023-04-26T02:04:42.961Z,0.80
2023-04-26T02:04:54.921Z,0.80
2023-04-26T02:05:10.887Z,0.80
2023-04-26T02:05:22.873Z,0.70
2023-04-26T02:05:34.305Z,0.60
2023-04-26T02:05:45.714Z,0.65
2023-04-26T02:05:57.190Z,0.70
2023-04-26T02:06:08.638Z,0.70
2023-04-26T02:06:21.077Z,0.88
2023-04-26T02:06:32.521Z,1.10
2023-04-26T02:06:43.949Z,1.10
2023-04-26T02:06:58.184Z,0.90
2023-04-26T02:07:09.592Z,0.95
2023-04-26T02:07:20.981Z,0.80
2023-04-26T02:07:32.369Z,0.88
2023-04-26T02:07:43.778Z,0.90
2023-04-26T02:07:55.158Z,0.90
2023-04-26T02:08:06.608Z,0.90
2023-04-26T02:08:18.056Z,0.90
2023-04-26T02:08:29.893Z,0.90
2023-04-26T02:08:41.284Z,0.90
2023-04-26T02:08:53.224Z,0.95
2023-04-26T02:09:05.116Z,1.00
2023-04-26T02:09:17.665Z,1.20
2023-04-26T02:09:31.676Z,1.27
2023-04-26T02:09:43.063Z,1.27
2023-04-26T02:09:54.545Z,1.20
2023-04-26T02:10:06.652Z,1.20
2023-04-26T02:10:22.272Z,1.17
2023-04-26T02:10:33.655Z,0.98
2023-04-26T02:10:45.084Z,0.95
2023-04-26T02:10:56.737Z,0.98
2023-04-26T02:11:08.155Z,1.13
2023-04-26T02:11:22.165Z,1.10
2023-04-26T02:11:33.626Z,0.98
2023-04-26T02:11:45.149Z,0.90
2023-04-26T02:11:56.535Z,0.98
2023-04-26T02:12:07.929Z,1.13
2023-04-26T02:12:19.283Z,1.20
2023-04-26T02:12:30.620Z,1.20
2023-04-26T02:12:42.033Z,1.42
2023-04-26T02:12:53.440Z,1.20
2023-04-26T02:13:08.347Z,1.08
2023-04-26T02:13:20.067Z,0.93
2023-04-26T02:13:31.509Z,1.55
2023-04-26T02:13:45.481Z,1.60
2023-04-26T02:13:57.095Z,1.30
2023-04-26T02:14:10.410Z,1.30
2023-04-26T02:14:21.890Z,1.33
2023-04-26T02:14:34.283Z,1.30
2023-04-26T02:14:46.194Z,1.25
2023-04-26T02:14:57.821Z,1.08
2023-04-26T02:15:09.832Z,0.93
2023-04-26T02:15:21.290Z,0.90
2023-04-26T02:15:32.779Z,0.90
2023-04-26T02:15:47.889Z,0.85
2023-04-26T02:15:59.496Z,1.00
2023-04-26T02:16:11.006Z,1.05
2023-04-26T02:16:22.676Z,1.10
2023-04-26T02:16:34.200Z,0.93
2023-04-26T02:16:47.099Z,0.80
2023-04-26T02:16:58.540Z,0.77
2023-04-26T02:17:09.967Z,0.77
2023-04-26T02:17:21.393Z,0.90
2023-04-26T02:17:32.989Z,0.90
2023-04-26T02:17:44.641Z,0.82
2023-04-26T02:17:56.382Z,0.80
2023-04-26T02:18:08.032Z,0.80
2023-04-26T02:18:19.492Z,0.95
2023-04-26T02:18:37.118Z,1.20
2023-04-26T02:18:48.695Z,1.30
2023-04-26T02:19:00.217Z,1.17
2023-04-26T02:19:11.653Z,1.10
2023-04-26T02:19:23.235Z,1.00
2023-04-26T02:19:35.732Z,0.90
2023-04-26T02:19:47.204Z,0.90
2023-04-26T02:20:03.701Z,0.85
2023-04-26T02:20:15.384Z,0.90
2023-04-26T02:20:26.800Z,1.02
2023-04-26T02:20:40.653Z,1.00
2023-04-26T02:20:52.091Z,1.23
2023-04-26T02:21:08.114Z,1.23
2023-04-26T02:21:19.609Z,1.10
2023-04-26T02:21:32.514Z,1.00
2023-04-26T02:21:51.152Z,0.98
2023-04-26T02:22:05.034Z,1.00
2023-04-26T02:22:17.420Z,1.00
2023-04-26T02:22:28.804Z,1.08
2023-04-26T02:22:40.248Z,1.02
2023-04-26T02:22:51.696Z,1.08
2023-04-26T02:23:03.103Z,1.17
2023-04-26T02:23:14.771Z,1.23
2023-04-26T02:23:26.288Z,1.27
2023-04-26T02:23:38.002Z,1.23
2023-04-26T02:23:49.429Z,1.30
2023-04-26T02:24:00.784Z,1.27
2023-04-26T02:24:12.237Z,1.45
2023-04-26T02:24:24.439Z,1.30
2023-04-26T02:24:36.916Z,1.30
2023-04-26T02:24:50.091Z,1.10
2023-04-26T02:25:01.572Z,1.00
2023-04-26T02:25:12.990Z,0.98
2023-04-26T02:25:24.737Z,0.90
2023-04-26T02:25:36.313Z,1.10
2023-04-26T02:25:48.461Z,1.10
2023-04-26T02:25:59.926Z,1.00
2023-04-26T02:26:12.449Z,1.10
2023-04-26T02:26:23.944Z,1.05
2023-04-26T02:26:36.854Z,0.82
2023-04-26T02:26:48.521Z,1.05
2023-04-26T02:26:59.891Z,1.08
2023-04-26T02:27:12.603Z,1.20
2023-04-26T02:27:25.547Z,1.02
2023-04-26T02:27:37.394Z,1.02
2023-04-26T02:27:48.799Z,0.80
2023-04-26T02:28:00.223Z,0.80
2023-04-26T02:28:11.700Z,0.90
2023-04-26T02:28:23.126Z,1.10
2023-04-26T02:28:34.730Z,0.98
2023-04-26T02:28:46.148Z,0.93
2023-04-26T02:28:57.491Z,0.90
2023-04-26T02:29:08.843Z,1.00
2023-04-26T02:29:26.908Z,1.00
2023-04-26T02:29:51.543Z,1.15
2023-04-26T02:30:03.752Z,1.20
2023-04-26T02:30:15.153Z,1.10
2023-04-26T02:30:26.842Z,1.00
2023-04-26T02:30:38.244Z,1.17
2023-04-26T02:30:49.595Z,1.00
2023-04-26T02:31:02.573Z,1.20
2023-04-26T02:31:14.422Z,1.20
2023-04-26T02:31:25.938Z,1.00
2023-04-26T02:31:37.478Z,0.82
2023-04-26T02:31:48.987Z,0.90
2023-04-26T02:32:00.416Z,0.90
2023-04-26T02:32:12.931Z,0.90
2023-04-26T02:32:24.353Z,1.00
2023-04-26T02:32:35.858Z,0.90
2023-04-26T02:32:47.322Z,0.98
2023-04-26T02:32:58.846Z,0.98
2023-04-26T02:33:10.576Z,0.80
2023-04-26T02:33:22.656Z,0.82
2023-04-26T02:33:34.206Z,0.77
2023-04-26T02:33:48.186Z,0.82
2023-04-26T02:33:59.611Z,1.10
2023-04-26T02:34:12.593Z,1.00
2023-04-26T02:34:24.288Z,0.90
2023-04-26T02:34:37.022Z,1.00
2023-04-26T02:34:48.335Z,1.00
2023-04-26T02:34:59.708Z,0.85
2023-04-26T02:35:11.060Z,0.90
2023-04-26T02:35:23.574Z,0.95
2023-04-26T02:35:36.153Z,1.17
2023-04-26T02:35:47.554Z,1.20
2023-04-26T02:35:59.157Z,0.98
2023-04-26T02:36:11.602Z,1.10
2023-04-26T02:36:23.000Z,1.10
2023-04-26T02:36:34.569Z,1.10
2023-04-26T02:36:46.042Z,1.10
2023-04-26T02:36:58.010Z,1.00
2023-04-26T02:37:10.333Z,0.90
2023-04-26T02:37:22.108Z,0.90
2023-04-26T02:37:33.684Z,1.00
2023-04-26T02:37:45.088Z,0.90
2023-04-26T02:37:56.447Z,1.00
2023-04-26T02:38:07.812Z,1.10
2023-04-26T02:38:19.230Z,1.13
2023-04-26T02:38:30.636Z,1.10
2023-04-26T02:38:45.116Z,0.95
2023-04-26T02:38:56.579Z,1.00
2023-04-26T02:39:07.991Z,1.05
2023-04-26T02:39:19.482Z,1.00
2023-04-26T02:39:30.911Z,1.08
2023-04-26T02:39:42.340Z,1.00
2023-04-26T02:39:53.803Z,0.95
2023-04-26T02:40:08.835Z,0.98
2023-04-26T02:40:22.223Z,1.00
2023-04-26T02:40:33.621Z,1.02
2023-04-26T02:40:45.086Z,1.08
2023-04-26T02:41:00.282Z,1.02
2023-04-26T02:41:11.612Z,0.85
2023-04-26T02:41:22.986Z,0.80
2023-04-26T02:41:37.426Z,0.82
2023-04-26T02:41:48.991Z,1.05